Time;durP1;ratioP1;P1;durP2;ratioP2;P2;SDS_P1;SDS_P2;PMS_P1;PMS_P2;Temp;Humidity;BMP_temperature;BMP_pressure;BME280_temperature;BME280_humidity;BME280_pressure;Samples;Min_cycle;Max_cycle;Signal;HPM_P1;HPM_P2
2022/03/27 14:20:29;;;;;;;21.97;20.27;;;23.60;31.70;;;;;;5566879;23;21021;-72
2022/03/27 14:22:56;;;;;;;20.40;18.90;;;22.70;31.60;;;;;;4904341;29;20493;-72
2022/03/27 14:25:23;;;;;;;21.33;19.47;;;22.20;32.00;;;;;;4912017;29;20458;-72
2022/03/27 14:27:50;;;;;;;21.47;19.40;;;21.90;33.00;;;;;;4910596;29;20871;-72
2022/03/27 14:30:16;;;;;;;19.83;17.93;;;21.80;33.20;;;;;;4912608;29;20446;-72
2022/03/27 14:32:44;;;;;;;19.80;18.10;;;21.70;33.40;;;;;;4911765;29;20481;-72
2022/03/27 14:35:11;;;;;;;19.60;18.10;;;21.60;33.10;;;;;;4912047;29;20482;-72
2022/03/27 14:37:40;;;;;;;19.53;17.93;;;21.50;32.80;;;;;;4911894;29;20455;-73
2022/03/27 14:40:09;;;;;;;20.20;18.57;;;21.40;33.30;;;;;;4909647;29;20799;-72
2022/03/27 14:42:36;;;;;;;19.40;17.90;;;21.30;32.90;;;;;;4911732;29;20807;-72
2022/03/27 14:45:05;;;;;;;21.40;19.67;;;21.20;32.90;;;;;;4912365;29;20761;-72
2022/03/27 14:47:33;;;;;;;19.03;17.27;;;21.10;33.20;;;;;;4913298;29;20994;-73
2022/03/27 14:50:00;;;;;;;18.23;16.83;;;21.20;33.00;;;;;;4913657;29;20465;-73
2022/03/27 14:52:27;;;;;;;18.93;17.10;;;21.20;32.90;;;;;;4913513;29;20465;-72
2022/03/27 14:57:39;;;;;;;19.50;18.00;;;21.10;32.40;;;;;;4913724;29;20502;-73
2022/03/27 15:00:09;;;;;;;19.27;17.77;;;21.10;32.80;;;;;;4915192;29;21008;-72
2022/03/27 15:02:36;;;;;;;18.27;16.97;;;21.10;32.20;;;;;;4917578;29;20470;-73
2022/03/27 15:05:03;;;;;;;18.33;16.90;;;21.00;32.20;;;;;;4917478;29;21115;-73
2022/03/27 15:07:30;;;;;;;18.77;17.00;;;21.00;32.70;;;;;;4917490;29;20493;-73
2022/03/27 15:09:58;;;;;;;18.77;17.17;;;21.10;32.70;;;;;;4917696;29;20465;-73
2022/03/27 15:12:25;;;;;;;18.53;16.90;;;21.10;32.90;;;;;;4917357;29;20486;-73
2022/03/27 15:14:52;;;;;;;18.63;17.17;;;21.10;33.00;;;;;;4917294;29;20458;-73
2022/03/27 15:17:18;;;;;;;18.37;17.10;;;21.10;33.20;;;;;;4917260;29;20458;-72
2022/03/27 15:19:45;;;;;;;19.73;18.03;;;21.10;33.40;;;;;;4917235;29;21051;-71
2022/03/27 15:22:12;;;;;;;21.30;19.20;;;21.10;34.00;;;;;;4916921;29;20486;-71
2022/03/27 15:24:39;;;;;;;17.83;16.57;;;21.00;33.70;;;;;;4917088;29;21024;-72
2022/03/27 15:27:07;;;;;;;19.17;17.67;;;21.00;33.70;;;;;;4917284;29;20465;-71
2022/03/27 15:29:34;;;;;;;19.43;17.53;;;21.00;33.90;;;;;;4910918;29;20469;-71
2022/03/27 15:32:02;;;;;;;17.63;16.00;;;21.10;34.20;;;;;;4903013;29;20486;-72
2022/03/27 15:34:30;;;;;;;18.00;16.60;;;21.00;34.10;;;;;;4898098;29;20455;-71
2022/03/27 15:36:57;;;;;;;18.60;16.83;;;20.90;33.90;;;;;;4901582;29;20454;-71
2022/03/27 15:39:23;;;;;;;17.70;16.20;;;20.90;34.50;;;;;;4915608;29;20443;-71
2022/03/27 15:41:51;;;;;;;19.60;17.90;;;21.00;34.40;;;;;;4915696;29;20450;-71
2022/03/27 15:44:21;;;;;;;19.13;17.30;;;20.90;34.20;;;;;;4915568;29;20453;-71
2022/03/27 15:46:48;;;;;;;17.37;15.87;;;20.90;34.30;;;;;;4916361;29;20442;-71
2022/03/27 15:49:17;;;;;;;19.77;18.00;;;21.00;34.30;;;;;;4916026;29;20486;-71
2022/03/27 15:51:44;;;;;;;23.77;21.60;;;20.90;34.50;;;;;;4915857;29;20453;-71
2022/03/27 15:54:10;;;;;;;19.00;17.50;;;20.80;34.10;;;;;;4915849;29;20454;-72
2022/03/27 15:56:38;;;;;;;18.87;17.17;;;20.80;34.80;;;;;;4915488;29;20462;-71
2022/03/27 15:59:05;;;;;;;19.97;18.27;;;20.80;35.10;;;;;;4915724;29;20458;-71
2022/03/27 16:01:33;;;;;;;20.07;18.30;;;20.70;35.30;;;;;;4915441;29;20963;-71
2022/03/27 16:03:59;;;;;;;19.33;17.90;;;20.70;34.80;;;;;;4915513;29;20529;-71
2022/03/27 16:06:26;;;;;;;22.60;17.97;;;20.70;34.00;;;;;;4915392;29;20453;-71
2022/03/27 16:08:54;;;;;;;22.90;18.10;;;20.60;34.00;;;;;;4912536;29;20482;-74
2022/03/27 16:11:21;;;;;;;18.27;16.57;;;20.60;33.80;;;;;;4915347;29;20450;-70
2022/03/27 16:13:48;;;;;;;19.47;17.50;;;20.60;33.80;;;;;;4915492;29;20458;-72
2022/03/27 16:16:14;;;;;;;17.70;16.40;;;20.50;34.20;;;;;;4917607;29;20951;-72
2022/03/27 16:18:43;;;;;;;18.47;16.53;;;20.50;34.20;;;;;;4915122;29;20457;-72
2022/03/27 16:21:10;;;;;;;20.13;15.77;;;20.40;33.80;;;;;;4914825;29;20497;-72
2022/03/27 16:23:37;;;;;;;18.23;16.60;;;20.30;33.90;;;;;;4915955;29;20447;-72
2022/03/27 16:26:05;;;;;;;18.30;16.80;;;20.30;34.70;;;;;;4916222;29;20458;-71
2022/03/27 16:28:31;;;;;;;18.50;16.80;;;20.30;35.10;;;;;;4916425;29;20482;-72
2022/03/27 16:30:58;;;;;;;18.20;16.53;;;20.20;35.50;;;;;;4909661;29;20477;-71
2022/03/27 16:33:25;;;;;;;17.53;16.17;;;20.20;35.20;;;;;;4899579;29;20480;-72
2022/03/27 16:35:53;;;;;;;20.53;18.43;;;20.10;34.90;;;;;;4897052;29;20462;-71
2022/03/27 16:38:20;;;;;;;20.80;18.63;;;20.10;35.00;;;;;;4897281;29;20474;-71
2022/03/27 16:40:47;;;;;;;19.40;17.80;;;20.00;34.80;;;;;;4897185;29;20976;-71
2022/03/27 16:43:13;;;;;;;20.23;18.13;;;20.00;35.70;;;;;;4896895;29;20862;-71
2022/03/27 16:45:40;;;;;;;18.10;16.80;;;19.90;36.00;;;;;;4896800;29;20459;-72
2022/03/27 16:48:08;;;;;;;20.40;18.40;;;19.90;36.30;;;;;;4896939;29;20491;-71
2022/03/27 16:50:34;;;;;;;18.03;16.60;;;19.80;36.30;;;;;;4896803;29;21100;-71
2022/03/27 16:53:02;;;;;;;19.33;17.37;;;19.70;36.50;;;;;;4896975;29;20463;-72
2022/03/27 16:55:29;;;;;;;18.27;16.17;;;19.60;36.80;;;;;;4911169;29;20485;-71
2022/03/27 16:57:56;;;;;;;19.63;17.93;;;19.50;37.00;;;;;;4917107;29;20469;-72
2022/03/27 17:00:23;;;;;;;19.37;17.60;;;19.40;37.50;;;;;;4922094;29;20471;-71
2022/03/27 17:02:49;;;;;;;19.50;17.80;;;19.30;37.80;;;;;;4923591;29;20450;-71
2022/03/27 17:05:17;;;;;;;19.30;17.30;;;19.30;38.00;;;;;;4924272;29;20448;-71
2022/03/27 17:07:44;;;;;;;20.93;17.60;;;19.30;38.20;;;;;;4915687;29;20451;-71
2022/03/27 17:10:13;;;;;;;19.50;17.60;;;19.30;38.00;;;;;;4915285;29;20971;-71
2022/03/27 17:12:40;;;;;;;20.90;19.00;;;19.20;37.80;;;;;;4896876;29;20462;-71
2022/03/27 17:15:08;;;;;;;19.33;17.63;;;19.20;38.10;;;;;;4912608;29;20521;-71
2022/03/27 17:17:36;;;;;;;21.20;19.33;;;19.20;38.40;;;;;;4914693;29;20537;-71
2022/03/27 17:20:21;;;;;;;19.57;17.77;;;19.10;38.80;;;;;;5087567;28;20608;-71
2022/03/27 17:22:48;;;;;;;20.20;18.60;;;19.00;39.30;;;;;;5087721;28;20449;-71
2022/03/27 17:25:14;;;;;;;19.30;17.80;;;19.00;39.40;;;;;;5087887;28;20453;-71
2022/03/27 17:27:41;;;;;;;18.67;16.77;;;18.90;39.80;;;;;;5087341;28;20449;-71
2022/03/27 17:30:10;;;;;;;17.77;16.27;;;18.70;40.20;;;;;;5087388;28;20842;-71
2022/03/27 17:32:37;;;;;;;17.90;16.60;;;18.50;40.50;;;;;;5087433;28;20481;-71
2022/03/27 17:35:07;;;;;;;17.10;15.60;;;18.40;41.00;;;;;;5087585;28;20451;-71
2022/03/27 17:37:35;;;;;;;20.13;16.80;;;18.20;41.40;;;;;;5087372;28;20438;-71
2022/03/27 17:40:02;;;;;;;19.70;17.73;;;18.10;41.80;;;;;;5087631;28;20482;-71
2022/03/27 17:42:29;;;;;;;18.50;16.93;;;18.00;41.80;;;;;;5087350;28;20442;-71
2022/03/27 17:44:55;;;;;;;17.43;15.83;;;17.90;42.00;;;;;;5087192;28;20442;-71
2022/03/27 17:47:22;;;;;;;18.73;16.97;;;17.90;42.30;;;;;;5087185;28;20446;-71
2022/03/27 17:49:49;;;;;;;19.90;18.03;;;17.70;42.70;;;;;;5086738;28;20458;-70
2022/03/27 17:52:16;;;;;;;20.40;18.60;;;17.50;43.00;;;;;;5087047;28;20457;-72
2022/03/27 17:54:44;;;;;;;20.00;18.00;;;17.30;44.20;;;;;;5087331;28;20473;-71
2022/03/27 17:57:11;;;;;;;21.17;19.20;;;17.00;45.00;;;;;;5087046;28;20457;-71
2022/03/27 17:59:38;;;;;;;20.43;18.20;;;16.90;45.30;;;;;;5086690;28;20482;-71
2022/03/27 18:02:05;;;;;;;22.67;20.27;;;16.80;45.50;;;;;;5086752;28;20462;-71
2022/03/27 18:04:32;;;;;;;21.23;19.43;;;16.70;46.00;;;;;;5086275;28;20450;-72
2022/03/27 18:06:59;;;;;;;17.90;16.30;;;16.50;47.00;;;;;;5085130;28;20475;-71
2022/03/27 18:09:26;;;;;;;17.10;15.60;;;16.30;47.50;;;;;;5086769;28;20454;-72
2022/03/27 18:11:54;;;;;;;19.67;17.57;;;16.00;47.70;;;;;;5086434;28;20496;-71
2022/03/27 18:14:21;;;;;;;19.87;17.97;;;15.70;48.70;;;;;;5066197;28;20792;-71
2022/03/27 18:16:48;;;;;;;23.73;19.00;;;15.40;49.70;;;;;;5065895;28;20851;-71
2022/03/27 18:19:14;;;;;;;18.83;17.13;;;15.30;49.70;;;;;;5066768;28;20237;-70
2022/03/27 18:21:41;;;;;;;19.77;17.67;;;15.30;49.40;;;;;;5066669;28;20451;-72
2022/03/27 18:24:08;;;;;;;19.03;17.13;;;15.20;50.00;;;;;;5066572;28;20447;-73
2022/03/27 18:26:35;;;;;;;19.43;17.43;;;15.10;50.50;;;;;;5066797;28;20455;-71
2022/03/27 18:29:03;;;;;;;21.20;19.10;;;15.00;51.00;;;;;;5066522;28;20462;-70
2022/03/27 18:31:29;;;;;;;19.70;17.70;;;15.10;52.00;;;;;;5054141;28;20452;-71
2022/03/27 18:33:56;;;;;;;19.93;18.00;;;14.90;52.10;;;;;;5053409;28;20506;-71
2022/03/27 18:36:23;;;;;;;19.87;18.07;;;14.80;52.50;;;;;;5053186;28;20458;-71
2022/03/27 18:38:50;;;;;;;20.83;18.70;;;14.70;53.50;;;;;;5053218;28;20523;-70
2022/03/27 18:41:17;;;;;;;21.17;19.23;;;14.50;54.50;;;;;;5053189;28;20452;-70
2022/03/27 18:43:44;;;;;;;21.00;19.00;;;14.50;55.00;;;;;;5053193;28;20452;-71
2022/03/27 18:46:12;;;;;;;22.07;19.97;;;14.40;55.40;;;;;;5053164;28;20447;-71
2022/03/27 18:48:40;;;;;;;24.57;22.03;;;14.30;55.80;;;;;;5053264;28;20451;-71
2022/03/27 18:51:07;;;;;;;21.10;18.90;;;14.20;56.70;;;;;;5052760;28;20452;-71
2022/03/27 18:53:36;;;;;;;21.07;18.97;;;14.10;57.00;;;;;;5053138;28;20451;-71
2022/03/27 18:56:04;;;;;;;20.13;18.23;;;14.00;58.00;;;;;;5052796;28;20478;-71
2022/03/27 18:58:31;;;;;;;20.10;17.93;;;13.90;59.60;;;;;;5053062;28;20957;-71
2022/03/27 19:00:58;;;;;;;19.13;16.87;;;13.80;60.50;;;;;;5052887;28;20554;-71
2022/03/27 19:03:26;;;;;;;18.03;16.40;;;13.60;60.60;;;;;;5053031;28;20988;-70
2022/03/27 19:05:52;;;;;;;17.10;15.70;;;13.60;61.80;;;;;;5052780;28;20539;-70
2022/03/27 19:08:20;;;;;;;16.37;14.90;;;13.40;63.10;;;;;;5052772;28;20862;-70
2022/03/27 19:10:47;;;;;;;17.40;15.80;;;13.30;63.80;;;;;;5052784;28;20559;-70
2022/03/27 19:13:15;;;;;;;15.93;14.30;;;13.30;63.80;;;;;;5052873;28;20474;-71
2022/03/27 19:15:42;;;;;;;16.13;14.80;;;13.20;64.40;;;;;;5052644;28;20448;-71
2022/03/27 19:18:21;;;;;;;17.13;15.53;;;13.20;65.00;;;;;;5052509;28;20444;-71
2022/03/27 19:20:51;;;;;;;19.43;16.23;;;13.10;65.10;;;;;;5052402;28;20494;-71
2022/03/27 19:23:19;;;;;;;18.47;16.60;;;13.00;65.70;;;;;;5052661;28;20463;-71
2022/03/27 19:25:46;;;;;;;20.40;16.13;;;12.90;66.30;;;;;;5052660;28;20934;-71
2022/03/27 19:28:14;;;;;;;17.23;15.57;;;12.80;66.60;;;;;;5052328;28;20460;-70
2022/03/27 19:30:43;;;;;;;17.33;15.73;;;12.70;68.30;;;;;;5052493;28;20471;-69
2022/03/27 19:33:10;;;;;;;17.83;16.43;;;12.60;69.90;;;;;;5052107;28;20448;-70
2022/03/27 19:35:37;;;;;;;19.87;17.77;;;12.60;70.90;;;;;;5052484;28;20546;-69
2022/03/27 19:38:05;;;;;;;16.20;14.77;;;12.50;72.20;;;;;;5052240;28;20946;-70
2022/03/27 19:40:32;;;;;;;22.77;16.80;;;12.30;73.40;;;;;;5052441;28;20487;-70
2022/03/27 19:42:59;;;;;;;18.37;16.47;;;12.10;74.90;;;;;;5051152;28;20452;-71
2022/03/27 19:45:26;;;;;;;17.30;15.63;;;12.00;77.10;;;;;;5052031;28;20801;-70
2022/03/27 19:47:54;;;;;;;18.23;16.20;;;11.90;78.90;;;;;;5051747;28;20482;-71
2022/03/27 19:50:21;;;;;;;16.70;14.93;;;11.90;79.70;;;;;;5051809;28;20444;-70
2022/03/27 19:52:48;;;;;;;16.80;15.30;;;11.80;81.00;;;;;;5051715;28;20451;-71
2022/03/27 19:55:16;;;;;;;16.60;15.20;;;11.70;82.20;;;;;;5052004;28;20451;-71
2022/03/27 19:57:43;;;;;;;18.90;17.10;;;11.70;83.80;;;;;;5051559;28;20455;-71
2022/03/27 20:00:13;;;;;;;18.50;15.47;;;11.70;83.40;;;;;;5051372;28;20511;-71
2022/03/27 20:02:39;;;;;;;17.87;16.30;;;11.60;84.30;;;;;;5051563;28;20883;-70
2022/03/27 20:05:08;;;;;;;17.80;16.20;;;11.50;85.90;;;;;;5051848;28;20459;-71
2022/03/27 20:07:35;;;;;;;17.37;14.17;;;11.60;86.10;;;;;;5051736;28;20457;-71
2022/03/27 20:10:02;;;;;;;18.37;16.73;;;11.50;86.30;;;;;;5051642;28;20942;-74
2022/03/27 20:12:30;;;;;;;16.17;14.57;;;11.50;86.90;;;;;;5051670;28;20501;-71
2022/03/27 20:14:56;;;;;;;15.97;14.57;;;11.30;87.00;;;;;;5051263;28;20482;-69
2022/03/27 20:17:23;;;;;;;20.37;16.80;;;11.20;88.30;;;;;;5051387;28;20478;-69
2022/03/27 20:19:52;;;;;;;18.33;13.73;;;11.00;89.80;;;;;;5051039;28;20500;-70
2022/03/27 20:22:19;;;;;;;22.40;16.17;;;11.00;90.40;;;;;;5051432;28;20494;-70
2022/03/27 20:24:45;;;;;;;17.40;16.00;;;10.90;90.40;;;;;;5051515;28;20444;-71
2022/03/27 20:27:12;;;;;;;24.97;14.80;;;10.80;90.80;;;;;;5051484;28;20452;-70
2022/03/27 20:29:40;;;;;;;21.73;15.50;;;10.70;92.20;;;;;;5051086;28;20490;-71
2022/03/27 20:32:09;;;;;;;17.87;15.10;;;10.50;93.20;;;;;;5051024;28;20929;-70
2022/03/27 20:34:36;;;;;;;15.80;14.40;;;10.60;93.30;;;;;;5050931;28;20455;-70
2022/03/27 20:37:03;;;;;;;15.07;13.73;;;10.80;92.80;;;;;;5051174;28;20547;-70
2022/03/27 20:39:30;;;;;;;17.93;15.23;;;10.80;92.50;;;;;;5051070;28;20491;-70
2022/03/27 20:41:57;;;;;;;17.27;15.07;;;10.70;92.60;;;;;;5051159;28;20455;-69
2022/03/27 20:44:23;;;;;;;17.93;16.13;;;10.70;93.30;;;;;;5051440;28;20444;-70
2022/03/27 20:46:51;;;;;;;15.90;14.27;;;10.70;93.20;;;;;;5050903;28;20835;-69
2022/03/27 20:49:18;;;;;;;15.60;14.10;;;10.60;93.10;;;;;;5050988;28;20457;-69
2022/03/27 20:51:45;;;;;;;16.07;14.67;;;10.40;93.40;;;;;;5050880;28;20852;-70
2022/03/27 20:54:11;;;;;;;15.80;14.50;;;10.40;93.80;;;;;;5050513;28;20826;-70
2022/03/27 20:56:39;;;;;;;22.53;15.67;;;10.20;94.70;;;;;;5050919;28;20972;-70
2022/03/27 20:59:06;;;;;;;17.27;15.87;;;10.10;95.30;;;;;;5050623;28;20509;-70
2022/03/27 21:01:34;;;;;;;17.13;15.53;;;9.90;95.70;;;;;;5050922;28;20935;-70
2022/03/27 21:04:02;;;;;;;16.10;14.70;;;9.80;96.00;;;;;;5050790;28;20452;-70
2022/03/27 21:06:28;;;;;;;16.93;15.13;;;9.70;96.70;;;;;;5050776;28;20448;-70
2022/03/27 21:08:55;;;;;;;17.67;15.83;;;9.70;97.30;;;;;;5050686;28;20990;-70
2022/03/27 21:11:22;;;;;;;16.70;15.20;;;9.80;97.50;;;;;;5050650;28;20961;-70
2022/03/27 21:13:49;;;;;;;19.87;15.40;;;9.70;97.60;;;;;;5050540;28;20455;-70
2022/03/27 21:16:15;;;;;;;17.67;16.03;;;9.70;97.80;;;;;;5050719;28;20465;-71
2022/03/27 21:18:42;;;;;;;16.47;14.83;;;9.80;97.90;;;;;;5050379;28;20489;-71
2022/03/27 21:21:10;;;;;;;15.80;14.20;;;9.80;97.60;;;;;;5050199;28;20488;-71
2022/03/27 21:23:37;;;;;;;17.47;15.20;;;9.90;97.70;;;;;;5050576;28;20448;-71
2022/03/27 21:26:03;;;;;;;16.53;14.73;;;9.80;97.70;;;;;;5050770;28;20866;-71
2022/03/27 21:28:30;;;;;;;15.90;14.20;;;9.80;97.90;;;;;;5050496;28;20968;-71
